Time;durP1;ratioP1;P1;durP2;ratioP2;P2;SDS_P1;SDS_P2;PMS_P1;PMS_P2;Temp;Humidity;BMP_temperature;BMP_pressure;BME280_temperature;BME280_humidity;BME280_pressure;Samples;Min_cycle;Max_cycle;Signal;HPM_P1;HPM_P2
2023/07/29 00:00:16;;;;;;;2.93;1.13;;;;;;;18.63;100.00;99715.81;5018429;28;20769;-76
2023/07/29 00:02:42;;;;;;;2.00;1.10;;;;;;;18.63;100.00;99704.50;5012642;28;20213;-75
2023/07/29 00:05:07;;;;;;;5.13;1.30;;;;;;;18.61;100.00;99715.03;5019678;28;20204;-75
2023/07/29 00:07:33;;;;;;;3.63;0.80;;;;;;;18.58;100.00;99710.81;5022741;28;20223;-75
2023/07/29 00:09:58;;;;;;;1.67;1.10;;;;;;;18.56;100.00;99712.66;5020918;28;20655;-76
2023/07/29 00:12:23;;;;;;;1.33;0.90;;;;;;;18.52;100.00;99708.53;5018091;28;20196;-77
2023/07/29 00:14:49;;;;;;;1.37;0.97;;;;;;;18.46;100.00;99714.06;5022135;28;20190;-75
2023/07/29 00:17:14;;;;;;;2.73;1.20;;;;;;;18.40;100.00;99717.84;5024406;28;20205;-76
2023/07/29 00:19:39;;;;;;;1.10;0.70;;;;;;;18.34;100.00;99710.28;5018783;28;20214;-76
2023/07/29 00:22:05;;;;;;;1.93;1.10;;;;;;;18.31;100.00;99715.69;5021133;28;20218;-77
2023/07/29 00:24:30;;;;;;;1.10;0.93;;;;;;;18.29;100.00;99714.94;5019106;28;20692;-76
2023/07/29 00:26:56;;;;;;;1.97;1.20;;;;;;;18.28;100.00;99705.38;5017833;28;20909;-76
2023/07/29 00:29:21;;;;;;;1.60;1.50;;;;;;;18.28;100.00;99705.38;5020928;28;20189;-76
2023/07/29 00:31:46;;;;;;;2.00;1.20;;;;;;;18.25;100.00;99700.28;5020616;28;20203;-76
2023/07/29 00:34:17;;;;;;;1.30;1.17;;;;;;;18.24;100.00;99707.28;5015890;28;20590;-76
2023/07/29 00:36:42;;;;;;;1.10;0.90;;;;;;;18.24;100.00;99699.41;5013935;28;20693;-76
2023/07/29 00:39:07;;;;;;;1.60;1.00;;;;;;;18.27;100.00;99704.50;5023662;28;20273;-76
2023/07/29 00:41:33;;;;;;;2.17;1.17;;;;;;;18.30;100.00;99700.91;5021505;28;20916;-75
2023/07/29 00:43:58;;;;;;;1.07;0.97;;;;;;;18.30;100.00;99710.53;5021045;28;20271;-76
2023/07/29 00:46:24;;;;;;;0.90;0.90;;;;;;;18.31;100.00;99707.81;5015144;28;20186;-76
2023/07/29 00:48:55;;;;;;;0.90;0.90;;;;;;;18.31;100.00;99706.97;5016476;28;20663;-76
2023/07/29 00:51:20;;;;;;;0.93;0.83;;;;;;;18.32;100.00;99704.28;5018613;28;20204;-75
2023/07/29 00:53:46;;;;;;;1.17;1.07;;;;;;;18.33;100.00;99705.97;5017584;28;21027;-75
2023/07/29 00:56:12;;;;;;;0.80;0.70;;;;;;;18.35;100.00;99698.88;5017881;28;20195;-76
2023/07/29 00:58:38;;;;;;;1.17;0.80;;;;;;;18.36;100.00;99684.03;5019762;28;20179;-76
2023/07/29 01:01:03;;;;;;;2.30;0.80;;;;;;;18.33;100.00;99679.78;5022471;28;20205;-75
2023/07/29 01:03:28;;;;;;;1.90;0.83;;;;;;;18.27;100.00;99683.56;5019463;28;20656;-76
2023/07/29 01:06:07;;;;;;;1.10;0.90;;;;;;;18.23;100.00;99675.94;5013872;28;20188;-76
2023/07/29 01:09:01;;;;;;;1.63;1.10;;;;;;;18.20;100.00;99676.94;5025858;28;20258;-76
2023/07/29 01:11:57;;;;;;;1.27;0.93;;;;;;;18.19;100.00;99675.25;5020079;28;20285;-77
2023/07/29 01:14:54;;;;;;;1.10;0.77;;;;;;;18.17;100.00;99673.63;5020081;28;20278;-76
2023/07/29 01:17:25;;;;;;;1.00;0.97;;;;;;;18.15;100.00;99671.09;5017720;28;20271;-76
2023/07/29 01:20:08;;;;;;;1.20;0.80;;;;;;;18.12;100.00;99661.63;5021174;28;20263;-76
2023/07/29 01:22:35;;;;;;;1.17;0.90;;;;;;;18.11;100.00;99666.94;5020967;28;20209;-75
2023/07/29 01:25:01;;;;;;;0.87;0.87;;;;;;;18.09;100.00;99653.91;5016879;28;20285;-76
2023/07/29 01:27:26;;;;;;;1.20;1.00;;;;;;;18.08;100.00;99662.69;5016279;28;20262;-75
2023/07/29 01:29:53;;;;;;;1.53;1.00;;;;;;;18.08;100.00;99654.84;5020728;28;20186;-76
2023/07/29 01:32:43;;;;;;;1.57;0.67;;;;;;;18.08;100.00;99661.84;5021176;28;21585;-77
2023/07/29 01:35:37;;;;;;;0.90;0.90;;;;;;;18.07;100.00;99653.16;5017035;28;20241;-75
2023/07/29 01:38:31;;;;;;;1.53;0.73;;;;;;;18.07;100.00;99649.69;5017866;28;20201;-75
2023/07/29 01:40:58;;;;;;;1.90;0.93;;;;;;;18.05;100.00;99643.69;5022199;28;20230;-77
2023/07/29 01:43:25;;;;;;;1.47;0.90;;;;;;;18.03;100.00;99651.59;5017669;28;20769;-76
2023/07/29 01:45:51;;;;;;;0.80;0.80;;;;;;;17.99;100.00;99650.09;5020431;28;20187;-76
2023/07/29 01:48:17;;;;;;;1.83;1.10;;;;;;;17.97;100.00;99654.50;5021117;28;20192;-75
2023/07/29 01:50:42;;;;;;;1.67;0.93;;;;;;;17.94;100.00;99657.28;5016240;28;20201;-75
2023/07/29 01:53:08;;;;;;;1.37;1.00;;;;;;;17.94;100.00;99654.66;5013984;28;20235;-76
2023/07/29 01:55:33;;;;;;;1.83;1.30;;;;;;;17.92;100.00;99654.72;5022683;28;20202;-76
2023/07/29 01:58:01;;;;;;;1.37;0.80;;;;;;;17.92;100.00;99659.94;5019362;28;20232;-75
2023/07/29 02:00:26;;;;;;;2.43;1.30;;;;;;;17.91;100.00;99663.53;5018182;28;20203;-76
2023/07/29 02:02:52;;;;;;;1.00;0.90;;;;;;;17.91;100.00;99660.03;5019442;28;20199;-77
2023/07/29 02:05:17;;;;;;;2.13;1.23;;;;;;;17.90;100.00;99659.22;5020241;28;20276;-76
2023/07/29 02:07:43;;;;;;;1.73;0.90;;;;;;;17.91;100.00;99657.41;5012125;28;20191;-75
2023/07/29 02:10:08;;;;;;;0.90;0.90;;;;;;;17.91;100.00;99660.03;5017573;28;20664;-75
2023/07/29 02:12:36;;;;;;;1.10;1.00;;;;;;;17.91;100.00;99660.91;5015746;28;20552;-76
2023/07/29 02:15:02;;;;;;;1.00;0.90;;;;;;;17.92;100.00;99653.88;5019613;28;20652;-75
2023/07/29 02:17:27;;;;;;;0.90;0.90;;;;;;;17.92;100.00;99643.41;5018539;28;20180;-75
2023/07/29 02:19:53;;;;;;;2.83;1.30;;;;;;;17.92;100.00;99641.63;5014797;28;20227;-76
2023/07/29 02:22:18;;;;;;;1.77;1.30;;;;;;;17.96;100.00;99650.19;5018359;28;20704;-76
2023/07/29 02:24:44;;;;;;;1.00;0.90;;;;;;;17.98;100.00;99648.38;5020060;28;20187;-75
2023/07/29 02:27:10;;;;;;;1.13;1.00;;;;;;;18.01;100.00;99655.22;5014500;28;20192;-76
2023/07/29 02:29:36;;;;;;;1.57;1.10;;;;;;;18.01;100.00;99658.69;5022309;28;20188;-76
2023/07/29 02:32:02;;;;;;;4.40;1.10;;;;;;;18.00;100.00;99658.78;5019254;28;20200;-77
2023/07/29 02:34:27;;;;;;;3.37;1.37;;;;;;;17.95;100.00;99653.75;5017281;28;20188;-75
2023/07/29 02:36:52;;;;;;;2.93;1.33;;;;;;;17.93;100.00;99652.97;5014580;28;20231;-76
2023/07/29 02:39:18;;;;;;;1.50;1.00;;;;;;;17.92;100.00;99656.50;5015900;28;20245;-76
2023/07/29 02:41:43;;;;;;;4.57;1.70;;;;;;;17.94;100.00;99660.72;5019357;28;20253;-76
2023/07/29 02:44:11;;;;;;;3.60;1.43;;;;;;;17.90;100.00;99651.34;5014429;28;20188;-76
2023/07/29 02:46:37;;;;;;;2.30;1.40;;;;;;;17.91;100.00;99652.19;5014748;28;21526;-75
2023/07/29 02:49:03;;;;;;;2.30;1.20;;;;;;;17.91;100.00;99649.56;5017483;28;20194;-76
2023/07/29 02:51:29;;;;;;;1.97;1.37;;;;;;;17.92;100.00;99649.47;5016600;28;20214;-75
2023/07/29 02:53:54;;;;;;;1.87;1.00;;;;;;;17.94;100.00;99647.63;5011968;28;20660;-76
2023/07/29 02:56:19;;;;;;;0.90;0.90;;;;;;;17.97;100.00;99647.53;5022939;28;20192;-75
2023/07/29 02:58:45;;;;;;;1.20;0.90;;;;;;;18.01;100.00;99645.59;5023715;28;20221;-76
2023/07/29 03:01:10;;;;;;;1.50;1.00;;;;;;;18.03;100.00;99642.91;5019846;28;20216;-76
2023/07/29 03:03:35;;;;;;;1.00;0.90;;;;;;;18.05;100.00;99641.06;5021862;28;20191;-76
2023/07/29 03:06:09;;;;;;;2.20;1.17;;;;;;;18.05;100.00;99623.56;5019012;28;20189;-75
2023/07/29 03:08:35;;;;;;;1.27;1.17;;;;;;;18.07;100.00;99618.28;5019069;28;20232;-75
2023/07/29 03:11:09;;;;;;;1.50;1.23;;;;;;;18.06;100.00;99619.19;5012346;28;20218;-77
2023/07/29 03:13:34;;;;;;;2.50;1.30;;;;;;;18.05;100.00;99609.66;5014798;28;20202;-75
2023/07/29 03:16:14;;;;;;;1.50;1.33;;;;;;;18.05;100.00;99601.78;5014538;28;20253;-75
2023/07/29 03:18:40;;;;;;;1.30;1.20;;;;;;;18.04;100.00;99603.56;5015176;28;20190;-76
2023/07/29 03:21:06;;;;;;;1.03;0.97;;;;;;;18.05;100.00;99607.88;5017014;28;20246;-75
2023/07/29 03:23:33;;;;;;;2.70;1.40;;;;;;;18.02;100.00;99613.25;5017109;28;20212;-76
2023/07/29 03:25:59;;;;;;;3.00;1.30;;;;;;;18.01;100.00;99605.50;5017920;28;20201;-76
2023/07/29 03:28:27;;;;;;;2.37;1.10;;;;;;;17.97;100.00;99605.63;5017583;28;20201;-75
2023/07/29 03:30:53;;;;;;;1.60;1.00;;;;;;;17.97;100.00;99610.00;5011512;28;20211;-76
2023/07/29 03:33:18;;;;;;;2.57;1.10;;;;;;;17.98;100.00;99609.13;5017343;28;20210;-76
2023/07/29 03:35:44;;;;;;;1.43;1.13;;;;;;;18.00;100.00;99598.56;5020373;28;20185;-76
2023/07/29 03:38:11;;;;;;;3.10;1.00;;;;;;;18.01;100.00;99595.84;5029804;28;20292;-77
2023/07/29 03:40:36;;;;;;;1.00;0.97;;;;;;;18.03;100.00;99594.00;5027789;28;20276;-76
2023/07/29 03:43:01;;;;;;;1.20;1.10;;;;;;;18.07;100.00;99605.19;5017474;28;20222;-76
2023/07/29 03:45:27;;;;;;;1.80;1.30;;;;;;;18.07;100.00;99613.88;5016529;28;20197;-76
2023/07/29 03:47:52;;;;;;;2.33;1.13;;;;;;;18.10;100.00;99641.66;5022023;28;20194;-75
2023/07/29 03:50:17;;;;;;;3.77;1.40;;;;;;;18.12;100.00;99627.59;5020645;28;20214;-78
2023/07/29 03:52:43;;;;;;;2.67;1.57;;;;;;;18.14;100.00;99627.50;5022122;28;20180;-77
2023/07/29 03:55:09;;;;;;;2.17;1.70;;;;;;;18.14;100.00;99619.63;5026284;28;20281;-76
2023/07/29 03:57:34;;;;;;;1.47;1.30;;;;;;;18.14;100.00;99630.13;5018146;28;20189;-77
2023/07/29 03:59:59;;;;;;;1.53;1.20;;;;;;;18.16;100.00;99632.66;5020977;28;20583;-76
2023/07/29 04:02:24;;;;;;;6.13;1.80;;;;;;;18.18;100.00;99631.66;5018560;28;20290;-76
2023/07/29 04:04:52;;;;;;;3.10;1.80;;;;;;;18.25;100.00;99614.69;5022119;28;20188;-76
2023/07/29 04:07:18;;;;;;;2.20;2.00;;;;;;;18.23;100.00;99621.78;5017091;28;20207;-75
2023/07/29 04:09:43;;;;;;;5.30;2.23;;;;;;;18.25;100.00;99624.34;5018867;28;20184;-77
2023/07/29 04:12:09;;;;;;;2.27;2.07;;;;;;;18.28;100.00;99632.03;5021674;28;20204;-76
2023/07/29 04:14:35;;;;;;;2.20;2.00;;;;;;;18.28;100.00;99627.63;5021092;28;20196;-76
2023/07/29 04:17:00;;;;;;;2.83;1.80;;;;;;;18.32;100.00;99630.09;5023690;28;20274;-75
2023/07/29 04:19:26;;;;;;;1.83;1.73;;;;;;;18.34;100.00;99625.63;5020812;28;20192;-75
2023/07/29 04:21:51;;;;;;;2.80;1.90;;;;;;;18.36;100.00;99632.47;5020970;28;20302;-76
2023/07/29 04:24:16;;;;;;;2.07;1.60;;;;;;;18.39;100.00;99629.69;5024253;28;20925;-76
2023/07/29 04:26:41;;;;;;;1.90;1.70;;;;;;;18.42;100.00;99620.81;5026271;28;20198;-76
2023/07/29 04:29:07;;;;;;;2.87;2.20;;;;;;;18.45;100.00;99614.59;5021030;28;20242;-75
2023/07/29 04:31:32;;;;;;;2.67;1.83;;;;;;;18.47;100.00;99623.19;5023817;28;20285;-76
2023/07/29 04:33:57;;;;;;;1.87;1.70;;;;;;;18.50;100.00;99612.56;5021742;28;20657;-75
2023/07/29 04:36:23;;;;;;;1.77;1.67;;;;;;;18.53;100.00;99617.66;5020190;28;20191;-76
2023/07/29 04:38:48;;;;;;;2.20;1.90;;;;;;;18.55;100.00;99614.00;5022488;28;20207;-76
2023/07/29 04:41:13;;;;;;;2.13;1.70;;;;;;;18.58;100.00;99621.72;5023270;28;20809;-75
2023/07/29 04:43:42;;;;;;;2.03;1.80;;;;;;;18.61;100.00;99625.09;5019430;28;20237;-75
2023/07/29 04:46:08;;;;;;;2.67;1.70;;;;;;;18.63;100.00;99625.88;5024369;28;20197;-76
2023/07/29 04:48:36;;;;;;;2.10;1.90;;;;;;;18.66;100.00;99623.09;5024838;28;20235;-76
2023/07/29 04:51:04;;;;;;;2.87;1.90;;;;;;;18.68;100.00;99623.88;5022001;28;20295;-75
2023/07/29 04:53:29;;;;;;;2.00;1.90;;;;;;;18.70;100.00;99622.84;5021924;28;20272;-75
2023/07/29 04:55:55;;;;;;;2.07;1.87;;;;;;;18.72;100.00;99621.00;5022484;28;20282;-75
2023/07/29 04:58:20;;;;;;;1.90;1.80;;;;;;;18.76;100.00;99628.66;5017840;28;20187;-75
2023/07/29 05:00:48;;;;;;;2.57;1.97;;;;;;;18.77;100.00;99615.50;5025245;28;20623;-75
2023/07/29 05:03:13;;;;;;;2.10;2.00;;;;;;;18.80;100.00;99619.72;5017150;28;20222;-75
2023/07/29 05:05:39;;;;;;;2.57;1.63;;;;;;;18.81;100.00;99624.91;5018094;28;20259;-75
2023/07/29 05:08:04;;;;;;;2.47;2.13;;;;;;;18.83;100.00;99615.16;5021414;28;20201;-75
2023/07/29 05:10:29;;;;;;;2.63;1.80;;;;;;;18.84;100.00;99623.88;5025515;28;20330;-75
2023/07/29 05:12:55;;;;;;;1.90;1.70;;;;;;;18.86;100.00;99625.47;5021507;28;20619;-76
2023/07/29 05:15:20;;;;;;;1.70;1.53;;;;;;;18.88;100.00;99621.00;5021653;28;20194;-76
2023/07/29 05:17:45;;;;;;;1.90;1.80;;;;;;;18.92;100.00;99620.84;5021016;28;20197;-76
2023/07/29 05:20:11;;;;;;;1.93;1.77;;;;;;;18.94;100.00;99629.47;5015836;28;21274;-76
2023/07/29 05:22:36;;;;;;;1.90;1.80;;;;;;;18.95;100.00;99634.66;5018511;28;20713;-76
2023/07/29 05:25:02;;;;;;;1.90;1.80;;;;;;;18.99;100.00;99630.06;5023460;28;20195;-75
2023/07/29 05:27:28;;;;;;;2.17;1.80;;;;;;;19.04;100.00;99639.41;5019403;28;20234;-77
2023/07/29 05:29:53;;;;;;;2.33;1.50;;;;;;;19.12;100.00;99625.88;5019757;28;20270;-75
2023/07/29 05:32:18;;;;;;;2.13;1.73;;;;;;;19.21;100.00;99621.88;5023987;28;20252;-76
2023/07/29 05:34:43;;;;;;;1.83;1.70;;;;;;;19.30;100.00;99624.00;5020975;28;20643;-76
2023/07/29 05:37:09;;;;;;;2.00;1.80;;;;;;;19.38;100.00;99626.19;5044842;28;20214;-75
2023/07/29 05:39:34;;;;;;;1.60;1.50;;;;;;;19.43;100.00;99625.94;5034053;28;20214;-75
2023/07/29 05:42:02;;;;;;;1.83;1.67;;;;;;;19.50;100.00;99629.91;5022716;28;21251;-75
2023/07/29 05:44:28;;;;;;;1.60;1.50;;;;;;;19.56;100.00;99626.91;5022243;28;20686;-76
2023/07/29 05:46:53;;;;;;;1.87;1.77;;;;;;;19.64;100.00;99627.34;5021530;28;20182;-75
2023/07/29 05:49:18;;;;;;;1.97;1.77;;;;;;;19.73;100.00;99633.84;5017818;28;20210;-75
2023/07/29 05:51:44;;;;;;;1.67;1.57;;;;;;;19.80;100.00;99636.97;5021698;28;20203;-75
2023/07/29 05:54:09;;;;;;;1.70;1.60;;;;;;;19.87;100.00;99646.19;5018844;28;20220;-75
2023/07/29 05:56:37;;;;;;;2.07;1.57;;;;;;;19.90;100.00;99642.53;5009466;28;20199;-75
2023/07/29 05:59:05;;;;;;;1.60;1.50;;;;;;;19.92;100.00;99646.78;5014673;28;20181;-75
2023/07/29 06:01:31;;;;;;;2.30;2.10;;;;;;;19.92;100.00;99643.28;5016222;28;20207;-76
2023/07/29 06:03:56;;;;;;;1.60;1.50;;;;;;;19.91;100.00;99652.97;5020579;28;20194;-76
2023/07/29 06:06:23;;;;;;;2.17;1.67;;;;;;;19.89;100.00;99656.63;5017655;28;20233;-76
2023/07/29 06:08:48;;;;;;;1.53;1.43;;;;;;;19.87;100.00;99656.69;5022547;28;20187;-76
2023/07/29 06:11:14;;;;;;;1.90;1.80;;;;;;;19.89;100.00;99662.69;5018847;28;20214;-78
2023/07/29 06:13:39;;;;;;;1.80;1.43;;;;;;;19.86;100.00;99667.25;5025736;28;20187;-77
2023/07/29 06:16:04;;;;;;;2.07;1.77;;;;;;;19.84;100.00;99687.50;5021667;28;20799;-77
2023/07/29 06:18:30;;;;;;;2.23;1.70;;;;;;;19.79;100.00;99688.59;5015869;28;20195;-77
2023/07/29 06:20:55;;;;;;;2.53;2.03;;;;;;;19.76;100.00;99695.81;5013654;28;20260;-77
2023/07/29 06:23:20;;;;;;;2.87;2.17;;;;;;;19.70;100.00;99697.00;5024148;28;20201;-76
2023/07/29 06:25:45;;;;;;;2.70;2.30;;;;;;;19.67;100.00;99697.19;5030890;28;20920;-78
2023/07/29 06:28:11;;;;;;;2.40;2.00;;;;;;;19.65;100.00;99688.53;5013632;28;20204;-77
2023/07/29 06:30:36;;;;;;;2.70;2.50;;;;;;;19.66;100.00;99682.34;5023607;28;20212;-77
2023/07/29 06:33:03;;;;;;;2.70;2.23;;;;;;;19.68;100.00;99698.00;5017499;28;20191;-77
2023/07/29 06:35:28;;;;;;;2.47;2.27;;;;;;;19.77;100.00;99700.13;5036472;28;20205;-77
2023/07/29 06:37:54;;;;;;;2.53;2.33;;;;;;;19.73;100.00;99706.47;5018994;28;20200;-77
2023/07/29 06:40:19;;;;;;;2.40;2.20;;;;;;;19.71;100.00;99703.97;5015507;28;20312;-77
2023/07/29 06:42:44;;;;;;;2.23;1.97;;;;;;;19.75;100.00;99707.25;5015031;28;20207;-76
2023/07/29 06:45:10;;;;;;;2.50;2.20;;;;;;;19.68;100.00;99698.00;5018298;28;20188;-78
2023/07/29 06:47:35;;;;;;;2.37;2.07;;;;;;;19.67;100.00;99704.19;5019821;28;20286;-76
2023/07/29 06:50:02;;;;;;;2.70;2.23;;;;;;;19.66;100.00;99703.38;5020656;28;20647;-77
2023/07/29 06:52:27;;;;;;;6.47;2.40;;;;;;;19.72;100.00;99705.66;5019796;28;20195;-77
2023/07/29 06:54:52;;;;;;;2.23;2.03;;;;;;;19.72;100.00;99700.41;5014526;28;20188;-78
2023/07/29 06:57:18;;;;;;;3.80;2.13;;;;;;;19.74;100.00;99695.88;5013591;28;20204;-76
2023/07/29 06:59:43;;;;;;;2.10;2.00;;;;;;;19.78;100.00;99694.78;5018480;28;20202;-78
2023/07/29 07:02:08;;;;;;;5.40;2.73;;;;;;;19.77;100.00;99695.72;5024245;28;20249;-78
2023/07/29 07:04:34;;;;;;;2.47;2.23;;;;;;;19.75;100.00;99702.81;5013292;28;20298;-76
2023/07/29 07:06:59;;;;;;;3.70;2.57;;;;;;;19.73;100.00;99690.72;5019244;28;20199;-76
2023/07/29 07:09:25;;;;;;;5.00;2.40;;;;;;;19.82;100.00;99679.69;5016092;28;20191;-76
2023/07/29 07:11:50;;;;;;;3.87;2.40;;;;;;;19.93;100.00;99669.47;5012305;28;20297;-76
2023/07/29 07:14:15;;;;;;;2.87;2.47;;;;;;;20.08;100.00;99682.66;5011981;28;20206;-77
2023/07/29 07:16:41;;;;;;;2.53;2.33;;;;;;;20.24;100.00;99683.44;5019911;28;20188;-76
2023/07/29 07:19:06;;;;;;;2.17;1.97;;;;;;;20.62;100.00;99681.22;5024469;28;20278;-76
2023/07/29 07:21:34;;;;;;;2.30;2.10;;;;;;;20.94;100.00;99679.28;5023284;28;20211;-76
2023/07/29 07:24:00;;;;;;;1.87;1.73;;;;;;;21.24;100.00;99680.94;5026000;28;20286;-76
2023/07/29 07:26:25;;;;;;;4.90;2.30;;;;;;;21.43;100.00;99677.97;5024723;28;20192;-77
2023/07/29 07:28:51;;;;;;;2.40;1.80;;;;;;;21.86;100.00;99684.06;5018061;28;20188;-77
2023/07/29 07:31:16;;;;;;;2.07;1.87;;;;;;;22.13;100.00;99686.66;5021824;28;20226;-76
2023/07/29 07:33:42;;;;;;;2.50;1.90;;;;;;;22.38;100.00;99679.72;5023880;28;20192;-77
2023/07/29 07:36:07;;;;;;;1.73;1.60;;;;;;;22.75;100.00;99669.31;5030622;28;20196;-79
2023/07/29 07:38:32;;;;;;;1.47;1.37;;;;;;;23.04;100.00;99669.03;5029775;28;20676;-77
2023/07/29 07:40:58;;;;;;;1.37;1.27;;;;;;;23.38;100.00;99673.72;5022256;28;20204;-78
2023/07/29 07:43:24;;;;;;;1.70;1.60;;;;;;;23.72;100.00;99685.28;5022920;28;20202;-76
2023/07/29 07:45:49;;;;;;;1.53;1.20;;;;;;;23.55;100.00;99680.38;5022138;28;20194;-77
2023/07/29 07:48:16;;;;;;;1.40;1.30;;;;;;;23.19;100.00;99692.66;5027080;28;21497;-77
2023/07/29 07:50:42;;;;;;;1.43;1.33;;;;;;;22.95;100.00;99691.63;5021633;28;20204;-77
2023/07/29 07:53:07;;;;;;;2.07;1.53;;;;;;;22.51;100.00;99699.03;5021218;28;20202;-78
2023/07/29 07:55:32;;;;;;;2.00;1.13;;;;;;;22.61;100.00;99698.44;5022964;28;20594;-77
2023/07/29 07:57:58;;;;;;;1.67;1.50;;;;;;;22.38;100.00;99691.13;5021296;28;20451;-79
2023/07/29 08:00:23;;;;;;;1.43;1.23;;;;;;;21.87;100.00;99688.38;5022464;28;20226;-78
2023/07/29 08:02:48;;;;;;;2.80;1.73;;;;;;;22.13;100.00;99689.28;5027049;28;20243;-77
2023/07/29 08:05:14;;;;;;;1.57;1.47;;;;;;;22.47;100.00;99691.44;5020377;28;21007;-77
2023/07/29 08:07:39;;;;;;;1.40;1.30;;;;;;;22.86;100.00;99697.53;5019557;28;20267;-78
2023/07/29 08:10:05;;;;;;;1.73;1.60;;;;;;;23.14;100.00;99703.53;5024039;28;20183;-78
2023/07/29 08:12:30;;;;;;;1.40;1.30;;;;;;;23.17;100.00;99705.94;5021437;28;20184;-77
2023/07/29 08:14:56;;;;;;;2.07;1.57;;;;;;;23.26;100.00;99707.97;5025042;28;20686;-77
2023/07/29 08:17:21;;;;;;;2.03;1.40;;;;;;;23.43;100.00;99708.56;5022644;28;20622;-78
2023/07/29 08:19:46;;;;;;;2.83;1.50;;;;;;;23.39;100.00;99715.00;5012925;28;20192;-77
2023/07/29 08:22:12;;;;;;;2.03;1.17;;;;;;;23.42;100.00;99714.78;5014847;28;20287;-77
2023/07/29 08:24:37;;;;;;;1.37;1.20;;;;;;;23.21;100.00;99704.81;5013034;28;20704;-78
2023/07/29 08:27:03;;;;;;;1.53;1.40;;;;;;;23.29;100.00;99704.25;5014949;28;20184;-78
2023/07/29 08:29:28;;;;;;;1.00;1.00;;;;;;;23.22;100.00;99706.50;5012738;28;20190;-78
2023/07/29 08:31:55;;;;;;;2.10;1.33;;;;;;;23.18;100.00;99710.25;5012675;28;20200;-77
2023/07/29 08:34:26;;;;;;;1.40;1.30;;;;;;;23.22;100.00;99708.28;5018843;28;20188;-78
2023/07/29 08:36:51;;;;;;;1.63;1.53;;;;;;;23.00;100.00;99722.97;5017506;28;20758;-77
2023/07/29 08:39:17;;;;;;;2.90;1.60;;;;;;;22.91;100.00;99728.91;5017478;28;20195;-79
2023/07/29 08:41:53;;;;;;;1.47;1.20;;;;;;;22.77;100.00;99737.75;5018469;28;20326;-79
2023/07/29 08:44:23;;;;;;;2.90;1.40;;;;;;;22.64;100.00;99750.94;5016648;28;20187;-77
2023/07/29 08:46:50;;;;;;;1.60;1.33;;;;;;;22.52;100.00;99753.47;5014297;28;20313;-77
2023/07/29 08:49:19;;;;;;;2.40;1.20;;;;;;;22.48;100.00;99748.50;5017241;28;20187;-77
2023/07/29 08:51:50;;;;;;;1.33;1.20;;;;;;;22.37;100.00;99742.16;5011686;28;20238;-78
2023/07/29 08:54:16;;;;;;;1.70;1.43;;;;;;;22.32;100.00;99749.50;5013301;28;20187;-79
2023/07/29 08:56:45;;;;;;;1.80;1.50;;;;;;;22.23;100.00;99760.69;5013683;28;20179;-78
2023/07/29 08:59:11;;;;;;;2.40;1.50;;;;;;;22.19;100.00;99757.38;5015693;28;20664;-78
2023/07/29 09:01:38;;;;;;;1.97;1.57;;;;;;;22.13;100.00;99744.63;5013998;28;20281;-77
2023/07/29 09:04:03;;;;;;;3.23;1.90;;;;;;;22.09;100.00;99743.13;5012476;28;20196;-77
2023/07/29 09:06:31;;;;;;;4.33;1.80;;;;;;;22.06;100.00;99741.53;5016044;28;20203;-76
2023/07/29 09:08:58;;;;;;;3.20;1.70;;;;;;;22.07;100.00;99740.59;5013623;28;20219;-78
2023/07/29 09:11:23;;;;;;;3.17;2.00;;;;;;;22.17;100.00;99726.81;5014714;28;20203;-77
2023/07/29 09:13:48;;;;;;;2.67;1.40;;;;;;;22.27;100.00;99719.13;5009585;28;20214;-77
2023/07/29 09:16:17;;;;;;;2.73;1.47;;;;;;;22.46;100.00;99721.41;5011711;28;20959;-77
2023/07/29 09:18:42;;;;;;;2.40;1.13;;;;;;;22.61;100.00;99733.53;5010144;28;20188;-78
2023/07/29 09:21:08;;;;;;;2.10;1.70;;;;;;;22.84;100.00;99731.97;5012072;28;20515;-80
2023/07/29 09:23:44;;;;;;;2.20;1.40;;;;;;;22.99;100.00;99739.75;5011638;28;20207;-77
2023/07/29 09:26:10;;;;;;;2.90;1.60;;;;;;;23.36;100.00;99733.69;5012385;28;20191;-77
2023/07/29 09:28:39;;;;;;;2.00;1.50;;;;;;;23.70;100.00;99741.84;5012062;28;20199;-77
2023/07/29 09:31:04;;;;;;;3.00;1.70;;;;;;;23.66;100.00;99741.22;5016025;28;20208;-77
2023/07/29 09:33:37;;;;;;;1.70;1.60;;;;;;;23.73;100.00;99734.53;5014535;28;20437;-77
2023/07/29 09:36:11;;;;;;;2.80;1.40;;;;;;;23.68;100.00;99739.28;5015353;28;20203;-78
2023/07/29 09:38:37;;;;;;;2.43;1.53;;;;;;;23.88;100.00;99737.00;5012452;28;20881;-77
2023/07/29 09:41:02;;;;;;;1.87;1.30;;;;;;;24.06;100.00;99737.44;5013128;28;20211;-77
2023/07/29 09:43:32;;;;;;;1.83;1.63;;;;;;;23.96;100.00;99736.44;5010956;28;20916;-78
2023/07/29 09:46:06;;;;;;;1.30;1.03;;;;;;;24.23;100.00;99736.22;5010480;28;20624;-77
2023/07/29 09:48:36;;;;;;;1.77;1.40;;;;;;;24.26;100.00;99743.91;5009425;28;20223;-77
2023/07/29 09:51:14;;;;;;;1.87;1.00;;;;;;;24.17;100.00;99741.94;5011528;28;20204;-77
2023/07/29 09:53:42;;;;;;;1.80;1.20;;;;;;;24.50;100.00;99740.34;5012145;28;20230;-79
2023/07/29 09:56:08;;;;;;;1.93;1.33;;;;;;;24.85;100.00;99749.19;5009894;28;20199;-77
2023/07/29 09:58:35;;;;;;;2.30;1.07;;;;;;;24.64;100.00;99745.44;5007525;28;20191;-77
2023/07/29 10:01:01;;;;;;;1.60;1.10;;;;;;;24.90;100.00;99752.34;5007423;28;20216;-80
2023/07/29 10:03:27;;;;;;;2.60;1.30;;;;;;;25.18;100.00;99745.75;5009909;28;20228;-77
2023/07/29 10:05:53;;;;;;;2.13;1.00;;;;;;;25.41;100.00;99746.56;5007850;28;21001;-77
2023/07/29 10:08:19;;;;;;;2.00;1.13;;;;;;;25.58;100.00;99748.84;5011623;28;20184;-76
2023/07/29 10:10:45;;;;;;;1.07;0.90;;;;;;;25.40;100.00;99749.31;5008982;28;20980;-77
2023/07/29 10:13:12;;;;;;;1.47;1.00;;;;;;;25.40;100.00;99759.91;5006436;28;20186;-76
2023/07/29 10:15:38;;;;;;;0.97;0.97;;;;;;;25.15;100.00;99756.56;5008595;28;20184;-76
2023/07/29 10:18:04;;;;;;;1.23;1.13;;;;;;;24.90;100.00;99768.22;5007257;28;21121;-76
2023/07/29 10:20:37;;;;;;;1.23;1.10;;;;;;;24.69;100.00;99760.13;5011412;28;20203;-76
2023/07/29 10:23:06;;;;;;;1.30;1.20;;;;;;;24.71;100.00;99767.00;5009969;28;20236;-76
2023/07/29 10:25:43;;;;;;;0.87;0.83;;;;;;;24.42;100.00;99763.91;5010167;28;20188;-76
2023/07/29 10:28:12;;;;;;;1.10;1.00;;;;;;;24.46;100.00;99758.25;5002968;28;20234;-77
2023/07/29 10:30:38;;;;;;;1.00;0.90;;;;;;;24.68;100.00;99759.25;5009226;28;20203;-75
2023/07/29 10:33:06;;;;;;;0.93;0.93;;;;;;;24.84;100.00;99756.31;5006317;28;20188;-77
2023/07/29 10:35:35;;;;;;;1.27;1.13;;;;;;;24.77;100.00;99760.38;5007311;28;20264;-78
2023/07/29 10:38:02;;;;;;;1.53;1.10;;;;;;;24.70;100.00;99757.38;5010317;28;20202;-77
2023/07/29 10:40:44;;;;;;;1.30;1.20;;;;;;;24.79;100.00;99751.38;5007364;28;20211;-77
2023/07/29 10:43:11;;;;;;;1.17;1.07;;;;;;;24.99;100.00;99750.78;5007581;28;20220;-76
2023/07/29 10:45:38;;;;;;;1.60;1.00;;;;;;;25.14;100.00;99740.78;5008890;28;20184;-77
2023/07/29 10:48:10;;;;;;;1.33;1.00;;;;;;;25.27;100.00;99750.28;5008579;28;21224;-77
2023/07/29 10:50:35;;;;;;;1.13;0.90;;;;;;;25.50;100.00;99746.81;5009041;28;20214;-78
2023/07/29 10:53:00;;;;;;;1.90;0.83;;;;;;;25.73;100.00;99731.69;5004144;28;20180;-77
2023/07/29 10:55:32;;;;;;;0.80;0.80;;;;;;;25.66;100.00;99736.66;5011290;28;20198;-77
2023/07/29 10:58:19;;;;;;;1.17;0.90;;;;;;;25.84;100.00;99723.69;5015097;28;20184;-76
2023/07/29 11:00:45;;;;;;;1.07;0.97;;;;;;;25.78;100.00;99728.66;5009860;28;20203;-77
2023/07/29 11:03:16;;;;;;;1.67;0.90;;;;;;;25.89;100.00;99731.25;5012649;28;20303;-76
2023/07/29 11:05:45;;;;;;;2.30;1.03;;;;;;;25.80;100.00;99722.25;5009515;28;20183;-77
2023/07/29 11:08:27;;;;;;;1.37;1.00;;;;;;;26.01;100.00;99724.09;5012145;28;20236;-77
2023/07/29 11:11:02;;;;;;;1.10;0.80;;;;;;;26.16;100.00;99725.50;5010966;28;20279;-77
2023/07/29 11:13:32;;;;;;;0.80;0.80;;;;;;;25.98;100.00;99717.25;5011574;28;20189;-76
2023/07/29 11:15:58;;;;;;;1.00;1.00;;;;;;;26.09;100.00;99718.16;5010255;28;20200;-77
2023/07/29 11:18:34;;;;;;;1.17;1.07;;;;;;;26.20;100.00;99725.25;5013567;28;20219;-77
2023/07/29 11:21:01;;;;;;;1.80;1.00;;;;;;;26.36;100.00;99723.00;5013678;28;20311;-76
2023/07/29 11:23:29;;;;;;;1.07;1.07;;;;;;;26.46;98.87;99710.63;5012235;28;20240;-76